sensor_id;sensor_type;location;lat;lon;timestamp;P1;durP1;ratioP1;P2;durP2;ratioP2
27939;SDS011;15275;51.716;14.324;2023-04-01T00:00:21;2.97;;;1.23;;
27939;SDS011;15275;51.716;14.324;2023-04-01T00:02:47;3.08;;;1.00;;
27939;SDS011;15275;51.716;14.324;2023-04-01T00:05:13;2.17;;;0.80;;
27939;SDS011;15275;51.716;14.324;2023-04-01T00:07:41;3.50;;;0.93;;
27939;SDS011;15275;51.716;14.324;2023-04-01T00:10:08;2.78;;;0.95;;
27939;SDS011;15275;51.716;14.324;2023-04-01T00:12:37;2.53;;;0.85;;
27939;SDS011;15275;51.716;14.324;2023-04-01T00:15:04;1.00;;;0.90;;
27939;SDS011;15275;51.716;14.324;2023-04-01T00:17:34;4.25;;;0.95;;
27939;SDS011;15275;51.716;14.324;2023-04-01T00:20:00;4.10;;;1.00;;
27939;SDS011;15275;51.716;14.324;2023-04-01T00:22:27;3.45;;;1.40;;
27939;SDS011;15275;51.716;14.324;2023-04-01T00:24:54;2.38;;;0.80;;
27939;SDS011;15275;51.716;14.324;2023-04-01T00:27:19;1.35;;;0.80;;
27939;SDS011;15275;51.716;14.324;2023-04-01T00:29:45;2.83;;;0.82;;
27939;SDS011;15275;51.716;14.324;2023-04-01T00:32:12;3.25;;;1.00;;
27939;SDS011;15275;51.716;14.324;2023-04-01T00:34:39;2.85;;;1.05;;
27939;SDS011;15275;51.716;14.324;2023-04-01T00:37:06;1.73;;;0.85;;
27939;SDS011;15275;51.716;14.324;2023-04-01T00:39:33;2.20;;;1.05;;
27939;SDS011;15275;51.716;14.324;2023-04-01T00:42:01;4.82;;;1.25;;
27939;SDS011;15275;51.716;14.324;2023-04-01T00:44:30;1.95;;;0.85;;
27939;SDS011;15275;51.716;14.324;2023-04-01T00:46:59;3.95;;;1.55;;
27939;SDS011;15275;51.716;14.324;2023-04-01T00:49:33;3.83;;;0.93;;
27939;SDS011;15275;51.716;14.324;2023-04-01T00:52:03;3.45;;;1.00;;
27939;SDS011;15275;51.716;14.324;2023-04-01T00:54:32;1.67;;;0.90;;
27939;SDS011;15275;51.716;14.324;2023-04-01T00:59:34;2.92;;;1.40;;
27939;SDS011;15275;51.716;14.324;2023-04-01T01:02:07;3.05;;;1.45;;
27939;SDS011;15275;51.716;14.324;2023-04-01T01:04:36;4.13;;;1.77;;
27939;SDS011;15275;51.716;14.324;2023-04-01T01:13:13;3.28;;;0.75;;
27939;SDS011;15275;51.716;14.324;2023-04-01T01:19:08;3.80;;;0.77;;
27939;SDS011;15275;51.716;14.324;2023-04-01T01:37:40;1.90;;;0.77;;
27939;SDS011;15275;51.716;14.324;2023-04-01T01:40:08;1.35;;;0.70;;
27939;SDS011;15275;51.716;14.324;2023-04-01T01:42:38;3.67;;;1.00;;
27939;SDS011;15275;51.716;14.324;2023-04-01T01:45:09;2.28;;;0.95;;
27939;SDS011;15275;51.716;14.324;2023-04-01T01:47:37;4.13;;;0.82;;
27939;SDS011;15275;51.716;14.324;2023-04-01T01:50:05;2.38;;;1.05;;
27939;SDS011;15275;51.716;14.324;2023-04-01T01:52:33;0.73;;;0.55;;
27939;SDS011;15275;51.716;14.324;2023-04-01T01:54:59;2.50;;;0.90;;
27939;SDS011;15275;51.716;14.324;2023-04-01T01:57:28;2.15;;;0.85;;
27939;SDS011;15275;51.716;14.324;2023-04-01T02:00:04;1.75;;;0.70;;
27939;SDS011;15275;51.716;14.324;2023-04-01T02:02:45;0.65;;;0.65;;
27939;SDS011;15275;51.716;14.324;2023-04-01T02:05:21;1.17;;;0.60;;
27939;SDS011;15275;51.716;14.324;2023-04-01T02:08:01;2.10;;;0.70;;
27939;SDS011;15275;51.716;14.324;2023-04-01T02:10:32;3.45;;;0.85;;
27939;SDS011;15275;51.716;14.324;2023-04-01T02:13:05;1.13;;;0.65;;
27939;SDS011;15275;51.716;14.324;2023-04-01T02:15:41;0.95;;;0.60;;
27939;SDS011;15275;51.716;14.324;2023-04-01T02:18:11;1.35;;;0.60;;
27939;SDS011;15275;51.716;14.324;2023-04-01T02:20:39;1.00;;;0.70;;
27939;SDS011;15275;51.716;14.324;2023-04-01T02:23:07;1.27;;;0.70;;
27939;SDS011;15275;51.716;14.324;2023-04-01T02:25:35;1.92;;;0.88;;
27939;SDS011;15275;51.716;14.324;2023-04-01T02:28:04;4.78;;;1.95;;
27939;SDS011;15275;51.716;14.324;2023-04-01T02:30:32;3.10;;;0.80;;
27939;SDS011;15275;51.716;14.324;2023-04-01T02:33:01;3.13;;;0.80;;
27939;SDS011;15275;51.716;14.324;2023-04-01T02:35:29;5.20;;;0.93;;
27939;SDS011;15275;51.716;14.324;2023-04-01T02:37:55;2.33;;;0.80;;
27939;SDS011;15275;51.716;14.324;2023-04-01T02:40:21;1.90;;;0.80;;
27939;SDS011;15275;51.716;14.324;2023-04-01T02:42:47;1.83;;;0.93;;
27939;SDS011;15275;51.716;14.324;2023-04-01T02:45:13;1.38;;;0.70;;
27939;SDS011;15275;51.716;14.324;2023-04-01T02:47:40;2.13;;;0.80;;
27939;SDS011;15275;51.716;14.324;2023-04-01T02:50:06;1.90;;;0.80;;
27939;SDS011;15275;51.716;14.324;2023-04-01T02:52:33;5.65;;;0.82;;
27939;SDS011;15275;51.716;14.324;2023-04-01T02:54:59;3.25;;;0.80;;
27939;SDS011;15275;51.716;14.324;2023-04-01T02:57:25;1.52;;;0.60;;
27939;SDS011;15275;51.716;14.324;2023-04-01T02:59:51;3.70;;;1.38;;
27939;SDS011;15275;51.716;14.324;2023-04-01T03:02:17;1.13;;;0.60;;
27939;SDS011;15275;51.716;14.324;2023-04-01T03:04:43;3.03;;;1.20;;
27939;SDS011;15275;51.716;14.324;2023-04-01T03:07:09;3.58;;;1.00;;
27939;SDS011;15275;51.716;14.324;2023-04-01T03:09:36;1.48;;;0.70;;
27939;SDS011;15275;51.716;14.324;2023-04-01T03:12:02;3.67;;;0.95;;
27939;SDS011;15275;51.716;14.324;2023-04-01T03:14:28;2.97;;;0.90;;
27939;SDS011;15275;51.716;14.324;2023-04-01T03:16:54;2.92;;;1.10;;
27939;SDS011;15275;51.716;14.324;2023-04-01T03:19:20;2.03;;;0.85;;
27939;SDS011;15275;51.716;14.324;2023-04-01T03:21:46;1.98;;;0.90;;
27939;SDS011;15275;51.716;14.324;2023-04-01T03:24:12;2.33;;;0.88;;
27939;SDS011;15275;51.716;14.324;2023-04-01T03:26:37;3.00;;;0.80;;
27939;SDS011;15275;51.716;14.324;2023-04-01T03:29:03;2.50;;;1.30;;
27939;SDS011;15275;51.716;14.324;2023-04-01T03:31:29;4.90;;;2.45;;
27939;SDS011;15275;51.716;14.324;2023-04-01T03:33:55;3.95;;;1.90;;
27939;SDS011;15275;51.716;14.324;2023-04-01T03:36:21;1.75;;;1.40;;
27939;SDS011;15275;51.716;14.324;2023-04-01T03:38:47;4.00;;;1.30;;
27939;SDS011;15275;51.716;14.324;2023-04-01T03:41:13;3.58;;;1.75;;
27939;SDS011;15275;51.716;14.324;2023-04-01T03:43:41;3.65;;;2.35;;
27939;SDS011;15275;51.716;14.324;2023-04-01T03:46:08;1.90;;;1.30;;
27939;SDS011;15275;51.716;14.324;2023-04-01T03:48:34;3.45;;;1.50;;
27939;SDS011;15275;51.716;14.324;2023-04-01T03:51:00;4.60;;;2.00;;
27939;SDS011;15275;51.716;14.324;2023-04-01T03:53:25;3.63;;;2.38;;
27939;SDS011;15275;51.716;14.324;2023-04-01T03:55:52;3.47;;;1.90;;
27939;SDS011;15275;51.716;14.324;2023-04-01T03:58:19;1.52;;;1.10;;
27939;SDS011;15275;51.716;14.324;2023-04-01T04:00:45;4.30;;;2.40;;
27939;SDS011;15275;51.716;14.324;2023-04-01T04:03:11;6.50;;;3.95;;
27939;SDS011;15275;51.716;14.324;2023-04-01T04:05:37;7.75;;;3.47;;
27939;SDS011;15275;51.716;14.324;2023-04-01T04:10:37;2.05;;;1.48;;
27939;SDS011;15275;51.716;14.324;2023-04-01T04:13:03;1.90;;;1.05;;
27939;SDS011;15275;51.716;14.324;2023-04-01T04:15:28;2.00;;;0.90;;
27939;SDS011;15275;51.716;14.324;2023-04-01T04:17:54;1.95;;;0.75;;
27939;SDS011;15275;51.716;14.324;2023-04-01T04:20:20;1.67;;;1.00;;
27939;SDS011;15275;51.716;14.324;2023-04-01T04:22:46;3.80;;;0.88;;
27939;SDS011;15275;51.716;14.324;2023-04-01T04:25:12;1.88;;;0.80;;
27939;SDS011;15275;51.716;14.324;2023-04-01T04:27:38;2.53;;;0.90;;
27939;SDS011;15275;51.716;14.324;2023-04-01T04:30:04;0.90;;;0.70;;
27939;SDS011;15275;51.716;14.324;2023-04-01T04:32:32;1.20;;;0.80;;
27939;SDS011;15275;51.716;14.324;2023-04-01T04:34:58;1.85;;;1.00;;
27939;SDS011;15275;51.716;14.324;2023-04-01T04:37:24;2.58;;;0.77;;
27939;SDS011;15275;51.716;14.324;2023-04-01T04:39:50;1.27;;;0.80;;
27939;SDS011;15275;51.716;14.324;2023-04-01T04:42:16;2.38;;;1.05;;
27939;SDS011;15275;51.716;14.324;2023-04-01T04:44:42;1.30;;;0.98;;
27939;SDS011;15275;51.716;14.324;2023-04-01T04:47:08;1.45;;;1.00;;
27939;SDS011;15275;51.716;14.324;2023-04-01T04:49:34;1.80;;;0.90;;
27939;SDS011;15275;51.716;14.324;2023-04-01T04:52:00;1.92;;;1.15;;
27939;SDS011;15275;51.716;14.324;2023-04-01T04:54:26;2.42;;;0.80;;
27939;SDS011;15275;51.716;14.324;2023-04-01T04:56:52;2.97;;;0.82;;
27939;SDS011;15275;51.716;14.324;2023-04-01T04:59:18;1.20;;;0.68;;
27939;SDS011;15275;51.716;14.324;2023-04-01T05:01:44;1.00;;;0.80;;
27939;SDS011;15275;51.716;14.324;2023-04-01T05:04:10;2.55;;;0.90;;
27939;SDS011;15275;51.716;14.324;2023-04-01T05:06:36;1.55;;;0.80;;
27939;SDS011;15275;51.716;14.324;2023-04-01T05:09:02;2.13;;;0.80;;
27939;SDS011;15275;51.716;14.324;2023-04-01T05:11:27;2.65;;;0.90;;
27939;SDS011;15275;51.716;14.324;2023-04-01T05:13:53;2.47;;;0.80;;
27939;SDS011;15275;51.716;14.324;2023-04-01T05:16:20;1.30;;;1.00;;
27939;SDS011;15275;51.716;14.324;2023-04-01T05:18:46;3.75;;;0.80;;
27939;SDS011;15275;51.716;14.324;2023-04-01T05:21:12;1.48;;;0.98;;
27939;SDS011;15275;51.716;14.324;2023-04-01T05:23:40;4.10;;;1.05;;
27939;SDS011;15275;51.716;14.324;2023-04-01T05:26:07;5.07;;;2.10;;
27939;SDS011;15275;51.716;14.324;2023-04-01T05:28:36;5.82;;;1.27;;
27939;SDS011;15275;51.716;14.324;2023-04-01T05:31:03;3.53;;;1.50;;
27939;SDS011;15275;51.716;14.324;2023-04-01T05:33:31;3.28;;;1.38;;
27939;SDS011;15275;51.716;14.324;2023-04-01T05:36:04;2.63;;;1.35;;
27939;SDS011;15275;51.716;14.324;2023-04-01T05:38:35;3.10;;;1.33;;
27939;SDS011;15275;51.716;14.324;2023-04-01T05:41:01;1.60;;;0.90;;
27939;SDS011;15275;51.716;14.324;2023-04-01T05:43:27;2.72;;;1.02;;
27939;SDS011;15275;51.716;14.324;2023-04-01T05:45:54;0.82;;;0.60;;
27939;SDS011;15275;51.716;14.324;2023-04-01T05:48:21;6.03;;;2.85;;
27939;SDS011;15275;51.716;14.324;2023-04-01T05:50:47;4.03;;;2.83;;
27939;SDS011;15275;51.716;14.324;2023-04-01T05:53:12;5.20;;;2.10;;
27939;SDS011;15275;51.716;14.324;2023-04-01T05:55:38;4.20;;;1.50;;
27939;SDS011;15275;51.716;14.324;2023-04-01T05:58:04;4.22;;;1.23;;
27939;SDS011;15275;51.716;14.324;2023-04-01T06:00:30;1.45;;;1.08;;
27939;SDS011;15275;51.716;14.324;2023-04-01T06:02:58;1.00;;;0.70;;
27939;SDS011;15275;51.716;14.324;2023-04-01T06:05:26;1.65;;;0.77;;
27939;SDS011;15275;51.716;14.324;2023-04-01T06:07:58;2.88;;;1.00;;
27939;SDS011;15275;51.716;14.324;2023-04-01T06:10:40;2.33;;;1.00;;
27939;SDS011;15275;51.716;14.324;2023-04-01T06:15:50;1.95;;;0.70;;
27939;SDS011;15275;51.716;14.324;2023-04-01T06:24:48;1.55;;;0.80;;
27939;SDS011;15275;51.716;14.324;2023-04-01T06:30:46;5.50;;;1.25;;
27939;SDS011;15275;51.716;14.324;2023-04-01T06:33:56;1.60;;;0.70;;
27939;SDS011;15275;51.716;14.324;2023-04-01T06:46:44;1.90;;;0.85;;
27939;SDS011;15275;51.716;14.324;2023-04-01T06:54:58;2.90;;;1.25;;
27939;SDS011;15275;51.716;14.324;2023-04-01T06:57:49;2.92;;;0.85;;
27939;SDS011;15275;51.716;14.324;2023-04-01T07:00:31;2.05;;;1.05;;
27939;SDS011;15275;51.716;14.324;2023-04-01T07:05:58;3.88;;;1.10;;
27939;SDS011;15275;51.716;14.324;2023-04-01T07:08:31;4.15;;;1.17;;
27939;SDS011;15275;51.716;14.324;2023-04-01T07:11:04;0.63;;;0.63;;
27939;SDS011;15275;51.716;14.324;2023-04-01T07:13:42;3.05;;;0.90;;
27939;SDS011;15275;51.716;14.324;2023-04-01T07:21:52;2.30;;;1.00;;
27939;SDS011;15275;51.716;14.324;2023-04-01T07:24:34;1.30;;;0.77;;
27939;SDS011;15275;51.716;14.324;2023-04-01T07:27:05;2.22;;;0.90;;
27939;SDS011;15275;51.716;14.324;2023-04-01T07:29:38;3.50;;;0.90;;
27939;SDS011;15275;51.716;14.324;2023-04-01T07:38:00;2.33;;;0.90;;
27939;SDS011;15275;51.716;14.324;2023-04-01T07:43:54;2.75;;;0.80;;
27939;SDS011;15275;51.716;14.324;2023-04-01T07:46:48;1.52;;;0.80;;
27939;SDS011;15275;51.716;14.324;2023-04-01T07:55:16;3.22;;;0.95;;
27939;SDS011;15275;51.716;14.324;2023-04-01T08:00:51;4.55;;;1.20;;
27939;SDS011;15275;51.716;14.324;2023-04-01T08:20:53;1.75;;;0.80;;
27939;SDS011;15275;51.716;14.324;2023-04-01T08:23:26;2.55;;;1.15;;
27939;SDS011;15275;51.716;14.324;2023-04-01T08:34:31;8.93;;;1.40;;
27939;SDS011;15275;51.716;14.324;2023-04-01T08:37:04;2.15;;;1.15;;
27939;SDS011;15275;51.716;14.324;2023-04-01T08:40:32;1.75;;;0.85;;
27939;SDS011;15275;51.716;14.324;2023-04-01T08:45:41;1.83;;;0.88;;
27939;SDS011;15275;51.716;14.324;2023-04-01T08:57:25;1.70;;;0.68;;
27939;SDS011;15275;51.716;14.324;2023-04-01T09:03:43;2.40;;;0.70;;
27939;SDS011;15275;51.716;14.324;2023-04-01T09:14:45;2.35;;;1.00;;
27939;SDS011;15275;51.716;14.324;2023-04-01T09:20:30;2.25;;;0.75;;
27939;SDS011;15275;51.716;14.324;2023-04-01T09:45:58;2.72;;;0.80;;
27939;SDS011;15275;51.716;14.324;2023-04-01T09:54:54;1.08;;;0.60;;
27939;SDS011;15275;51.716;14.324;2023-04-01T10:10:07;0.93;;;0.60;;
27939;SDS011;15275;51.716;14.324;2023-04-01T10:12:54;2.03;;;0.60;;
27939;SDS011;15275;51.716;14.324;2023-04-01T10:22:09;2.13;;;0.93;;
27939;SDS011;15275;51.716;14.324;2023-04-01T10:40:57;1.48;;;1.00;;
27939;SDS011;15275;51.716;14.324;2023-04-01T10:47:08;1.23;;;0.75;;
27939;SDS011;15275;51.716;14.324;2023-04-01T11:23:14;1.10;;;0.45;;
27939;SDS011;15275;51.716;14.324;2023-04-01T11:40:07;2.72;;;0.77;;
27939;SDS011;15275;51.716;14.324;2023-04-01T11:42:52;0.65;;;0.52;;
27939;SDS011;15275;51.716;14.324;2023-04-01T11:45:38;1.25;;;0.65;;
27939;SDS011;15275;51.716;14.324;2023-04-01T11:57:22;1.55;;;0.70;;
27939;SDS011;15275;51.716;14.324;2023-04-01T12:18:11;2.00;;;0.70;;
27939;SDS011;15275;51.716;14.324;2023-04-01T12:21:22;2.05;;;0.60;;
27939;SDS011;15275;51.716;14.324;2023-04-01T12:30:42;1.35;;;0.60;;
27939;SDS011;15275;51.716;14.324;2023-04-01T12:44:51;2.95;;;0.60;;
27939;SDS011;15275;51.716;14.324;2023-04-01T12:56:14;1.10;;;0.60;;
27939;SDS011;15275;51.716;14.324;2023-04-01T13:02:49;0.55;;;0.47;;
27939;SDS011;15275;51.716;14.324;2023-04-01T13:08:57;2.55;;;1.00;;
27939;SDS011;15275;51.716;14.324;2023-04-01T13:20:16;0.43;;;0.43;;
27939;SDS011;15275;51.716;14.324;2023-04-01T13:26:17;1.20;;;0.50;;
27939;SDS011;15275;51.716;14.324;2023-04-01T13:29:36;0.50;;;0.40;;
27939;SDS011;15275;51.716;14.324;2023-04-01T13:44:19;0.60;;;0.43;;
27939;SDS011;15275;51.716;14.324;2023-04-01T13:55:53;0.82;;;0.50;;
27939;SDS011;15275;51.716;14.324;2023-04-01T13:58:42;1.38;;;0.57;;
27939;SDS011;15275;51.716;14.324;2023-04-01T14:10:16;1.00;;;0.70;;
27939;SDS011;15275;51.716;14.324;2023-04-01T14:15:58;3.20;;;0.90;;
27939;SDS011;15275;51.716;14.324;2023-04-01T14:18:40;2.15;;;0.80;;
27939;SDS011;15275;51.716;14.324;2023-04-01T14:21:28;2.22;;;1.20;;
27939;SDS011;15275;51.716;14.324;2023-04-01T14:27:24;4.13;;;1.92;;
27939;SDS011;15275;51.716;14.324;2023-04-01T14:33:23;1.00;;;0.90;;
27939;SDS011;15275;51.716;14.324;2023-04-01T14:36:19;1.15;;;0.98;;
27939;SDS011;15275;51.716;14.324;2023-04-01T14:50:20;1.63;;;1.10;;
27939;SDS011;15275;51.716;14.324;2023-04-01T14:58:13;2.15;;;1.50;;
27939;SDS011;15275;51.716;14.324;2023-04-01T15:00:47;3.50;;;1.80;;
27939;SDS011;15275;51.716;14.324;2023-04-01T15:03:47;2.05;;;1.30;;
27939;SDS011;15275;51.716;14.324;2023-04-01T15:12:57;6.10;;;3.55;;
27939;SDS011;15275;51.716;14.324;2023-04-01T15:36:45;4.45;;;3.40;;
27939;SDS011;15275;51.716;14.324;2023-04-01T15:39:42;3.88;;;3.13;;
27939;SDS011;15275;51.716;14.324;2023-04-01T15:51:36;4.72;;;2.85;;
27939;SDS011;15275;51.716;14.324;2023-04-01T16:28:57;3.95;;;3.03;;
27939;SDS011;15275;51.716;14.324;2023-04-01T16:34:34;3.55;;;2.90;;
27939;SDS011;15275;51.716;14.324;2023-04-01T16:39:54;8.90;;;7.05;;
27939;SDS011;15275;51.716;14.324;2023-04-01T16:45:41;5.20;;;3.63;;
27939;SDS011;15275;51.716;14.324;2023-04-01T16:59:36;6.45;;;2.67;;
27939;SDS011;15275;51.716;14.324;2023-04-01T17:02:10;5.30;;;3.47;;
27939;SDS011;15275;51.716;14.324;2023-04-01T17:04:44;5.38;;;3.22;;
27939;SDS011;15275;51.716;14.324;2023-04-01T17:39:16;6.25;;;3.47;;
27939;SDS011;15275;51.716;14.324;2023-04-01T17:48:23;4.28;;;3.10;;
27939;SDS011;15275;51.716;14.324;2023-04-01T18:11:25;4.25;;;2.95;;
27939;SDS011;15275;51.716;14.324;2023-04-01T18:20:34;4.85;;;3.35;;
27939;SDS011;15275;51.716;14.324;2023-04-01T18:23:56;4.80;;;3.22;;
27939;SDS011;15275;51.716;14.324;2023-04-01T18:26:41;3.60;;;2.65;;
27939;SDS011;15275;51.716;14.324;2023-04-01T18:31:48;4.55;;;2.33;;
27939;SDS011;15275;51.716;14.324;2023-04-01T18:45:57;3.85;;;2.17;;
27939;SDS011;15275;51.716;14.324;2023-04-01T18:54:30;3.53;;;2.28;;
27939;SDS011;15275;51.716;14.324;2023-04-01T18:57:14;3.97;;;2.40;;
27939;SDS011;15275;51.716;14.324;2023-04-01T18:59:42;3.55;;;2.70;;
27939;SDS011;15275;51.716;14.324;2023-04-01T19:05:38;3.10;;;2.28;;
27939;SDS011;15275;51.716;14.324;2023-04-01T19:08:24;3.33;;;3.00;;
27939;SDS011;15275;51.716;14.324;2023-04-01T19:14:37;2.42;;;2.00;;
27939;SDS011;15275;51.716;14.324;2023-04-01T19:17:20;3.20;;;2.20;;
27939;SDS011;15275;51.716;14.324;2023-04-01T19:42:56;2.75;;;2.08;;
27939;SDS011;15275;51.716;14.324;2023-04-01T19:51:36;3.38;;;2.13;;
27939;SDS011;15275;51.716;14.324;2023-04-01T20:06:04;3.03;;;2.53;;
27939;SDS011;15275;51.716;14.324;2023-04-01T20:08:44;2.97;;;2.50;;
27939;SDS011;15275;51.716;14.324;2023-04-01T20:17:22;2.88;;;2.00;;
27939;SDS011;15275;51.716;14.324;2023-04-01T20:25:21;2.28;;;2.00;;
27939;SDS011;15275;51.716;14.324;2023-04-01T20:28:36;2.75;;;2.10;;
27939;SDS011;15275;51.716;14.324;2023-04-01T20:31:01;2.97;;;2.17;;
27939;SDS011;15275;51.716;14.324;2023-04-01T20:59:44;3.10;;;2.17;;
27939;SDS011;15275;51.716;14.324;2023-04-01T21:02:41;2.92;;;1.90;;
27939;SDS011;15275;51.716;14.324;2023-04-01T21:27:50;3.58;;;2.78;;
27939;SDS011;15275;51.716;14.324;2023-04-01T21:33:36;4.22;;;2.83;;
27939;SDS011;15275;51.716;14.324;2023-04-01T22:09:52;2.60;;;2.05;;
27939;SDS011;15275;51.716;14.324;2023-04-01T22:12:41;7.05;;;3.42;;
27939;SDS011;15275;51.716;14.324;2023-04-01T22:17:49;3.88;;;2.40;;
27939;SDS011;15275;51.716;14.324;2023-04-01T22:20:32;3.42;;;2.00;;
27939;SDS011;15275;51.716;14.324;2023-04-01T22:26:15;2.63;;;2.00;;
27939;SDS011;15275;51.716;14.324;2023-04-01T22:28:59;3.45;;;2.30;;
27939;SDS011;15275;51.716;14.324;2023-04-01T22:31:54;2.58;;;1.95;;
27939;SDS011;15275;51.716;14.324;2023-04-01T22:34:47;2.53;;;1.88;;
27939;SDS011;15275;51.716;14.324;2023-04-01T22:40:23;2.70;;;1.95;;
27939;SDS011;15275;51.716;14.324;2023-04-01T22:43:39;3.72;;;1.83;;
27939;SDS011;15275;51.716;14.324;2023-04-01T22:46:19;3.22;;;2.20;;
27939;SDS011;15275;51.716;14.324;2023-04-01T22:49:48;3.47;;;2.30;;
27939;SDS011;15275;51.716;14.324;2023-04-01T22:52:44;3.47;;;2.17;;
27939;SDS011;15275;51.716;14.324;2023-04-01T22:55:15;4.03;;;2.65;;
27939;SDS011;15275;51.716;14.324;2023-04-01T22:57:50;3.58;;;2.67;;
27939;SDS011;15275;51.716;14.324;2023-04-01T23:00:28;4.72;;;2.47;;
27939;SDS011;15275;51.716;14.324;2023-04-01T23:05:56;2.88;;;2.47;;
27939;SDS011;15275;51.716;14.324;2023-04-01T23:11:18;3.53;;;2.50;;
27939;SDS011;15275;51.716;14.324;2023-04-01T23:27:53;2.35;;;1.98;;
27939;SDS011;15275;51.716;14.324;2023-04-01T23:35:50;2.20;;;2.00;;
27939;SDS011;15275;51.716;14.324;2023-04-01T23:38:31;3.95;;;2.20;;
27939;SDS011;15275;51.716;14.324;2023-04-01T23:41:04;3.17;;;2.40;;
27939;SDS011;15275;51.716;14.324;2023-04-01T23:43:32;3.25;;;2.38;;
27939;SDS011;15275;51.716;14.324;2023-04-01T23:46:02;4.47;;;2.80;;
27939;SDS011;15275;51.716;14.324;2023-04-01T23:48:32;3.63;;;2.20;;
27939;SDS011;15275;51.716;14.324;2023-04-01T23:51:02;2.83;;;2.50;;
27939;SDS011;15275;51.716;14.324;2023-04-01T23:53:29;3.95;;;2.30;;
27939;SDS011;15275;51.716;14.324;2023-04-01T23:55:59;4.18;;;2.47;;
